createdAt,value
2023-02-18T00:00:29.573Z,88.51
2023-02-18T00:02:56.345Z,88.94
2023-02-18T00:05:23.425Z,88.96
2023-02-18T00:07:50.499Z,88.28
2023-02-18T00:10:17.733Z,87.23
2023-02-18T00:12:44.879Z,87.19
2023-02-18T00:15:14.475Z,88.35
2023-02-18T00:17:41.191Z,87.53
2023-02-18T00:20:08.740Z,87.76
2023-02-18T00:22:35.538Z,88.50
2023-02-18T00:25:02.282Z,87.07
2023-02-18T00:27:29.102Z,85.77
2023-02-18T00:29:56.056Z,87.53
2023-02-18T00:32:24.264Z,88.20
2023-02-18T00:34:51.057Z,87.58
2023-02-18T00:37:17.795Z,88.26
2023-02-18T00:39:44.533Z,88.26
2023-02-18T00:42:11.666Z,87.57
2023-02-18T00:44:38.611Z,87.93
2023-02-18T00:47:05.407Z,87.64
2023-02-18T00:49:33.547Z,87.71
2023-02-18T00:52:00.356Z,87.00
2023-02-18T00:54:27.312Z,87.38
2023-02-18T00:56:54.057Z,88.23
2023-02-18T00:59:20.913Z,88.47
2023-02-18T01:01:47.657Z,87.74
2023-02-18T01:04:14.460Z,87.89
2023-02-18T01:06:42.697Z,87.74
2023-02-18T01:09:10.274Z,88.25
2023-02-18T01:11:37.153Z,88.59
2023-02-18T01:14:04.331Z,88.76
2023-02-18T01:16:31.320Z,89.79
2023-02-18T01:18:58.075Z,87.78
2023-02-18T01:21:24.841Z,87.25
2023-02-18T01:23:52.998Z,86.03
2023-02-18T01:26:19.760Z,87.98
2023-02-18T01:28:46.530Z,87.11
2023-02-18T01:31:14.219Z,86.98
2023-02-18T01:33:41.450Z,87.28
2023-02-18T01:36:10.164Z,86.41
2023-02-18T01:38:37.262Z,86.61
2023-02-18T01:41:05.696Z,87.05
2023-02-18T01:43:33.688Z,86.78
2023-02-18T01:46:08.254Z,86.48
2023-02-18T01:48:39.793Z,85.75
2023-02-18T01:51:11.818Z,86.80
2023-02-18T01:53:45.905Z,85.71
2023-02-18T01:56:20.008Z,87.40
2023-02-18T01:58:47.683Z,86.28
2023-02-18T02:01:14.645Z,87.34
2023-02-18T02:03:41.500Z,87.77
2023-02-18T02:06:15.464Z,87.67
2023-02-18T02:08:42.503Z,88.08
2023-02-18T02:11:22.837Z,88.60
2023-02-18T02:14:01.808Z,88.34
2023-02-18T02:16:38.096Z,88.64
2023-02-18T02:19:29.071Z,87.93
2023-02-18T02:22:24.161Z,88.17
2023-02-18T02:25:00.027Z,87.78
2023-02-18T02:27:44.187Z,87.88
2023-02-18T02:30:52.102Z,88.53
2023-02-18T02:33:35.919Z,88.03
2023-02-18T02:36:13.589Z,88.50
2023-02-18T02:38:48.898Z,88.89
2023-02-18T02:41:27.121Z,90.10
2023-02-18T02:44:05.593Z,90.06
2023-02-18T02:46:41.213Z,89.22
2023-02-18T02:49:19.057Z,89.02
2023-02-18T02:51:53.946Z,89.01
2023-02-18T02:54:23.570Z,87.84
2023-02-18T02:56:50.484Z,87.62
2023-02-18T02:59:22.540Z,88.66
2023-02-18T03:02:04.536Z,87.32
2023-02-18T03:04:51.419Z,88.78
2023-02-18T03:07:37.980Z,88.92
2023-02-18T03:10:23.441Z,89.13
2023-02-18T03:12:59.544Z,89.04
2023-02-18T03:15:36.632Z,89.62
2023-02-18T03:18:08.370Z,89.20
2023-02-18T03:20:37.295Z,89.11
2023-02-18T03:23:11.394Z,89.59
2023-02-18T03:25:40.146Z,89.43
2023-02-18T03:28:12.100Z,88.55
2023-02-18T03:30:43.398Z,89.85
2023-02-18T03:33:14.247Z,89.38
2023-02-18T03:35:43.328Z,89.85
2023-02-18T03:38:16.723Z,89.64
2023-02-18T03:40:43.479Z,89.15
2023-02-18T03:43:10.392Z,88.71
2023-02-18T03:45:37.312Z,88.00
2023-02-18T03:48:04.976Z,89.22
2023-02-18T03:50:31.731Z,87.73
2023-02-18T03:52:58.606Z,87.97
2023-02-18T03:55:26.797Z,88.19
2023-02-18T03:57:53.544Z,88.45
2023-02-18T04:00:21.256Z,88.64
2023-02-18T04:02:48.102Z,88.15
2023-02-18T04:05:15.001Z,87.56
2023-02-18T04:07:41.867Z,87.43
2023-02-18T04:10:09.347Z,87.51
2023-02-18T04:12:37.571Z,86.97
2023-02-18T04:15:05.003Z,87.91
2023-02-18T04:17:32.683Z,88.64
2023-02-18T04:20:00.003Z,89.40
2023-02-18T04:22:26.909Z,88.83
2023-02-18T04:24:53.653Z,88.42
2023-02-18T04:27:20.487Z,88.81
2023-02-18T04:29:48.957Z,89.14
2023-02-18T04:32:15.755Z,88.38
2023-02-18T04:34:42.722Z,88.38
2023-02-18T04:37:09.561Z,87.87
2023-02-18T04:39:36.355Z,88.11
2023-02-18T04:42:03.239Z,87.97
2023-02-18T04:44:30.025Z,87.88
2023-02-18T04:46:58.605Z,87.64
2023-02-18T04:49:25.349Z,87.66
2023-02-18T04:51:52.176Z,88.27
2023-02-18T04:54:18.906Z,87.87
2023-02-18T04:56:45.651Z,89.14
2023-02-18T04:59:12.467Z,86.71
2023-02-18T05:01:39.320Z,86.37
2023-02-18T05:04:07.562Z,85.92
2023-02-18T05:06:34.673Z,86.23
2023-02-18T05:09:01.491Z,88.03
2023-02-18T05:11:28.329Z,87.53
2023-02-18T05:13:55.099Z,87.42
2023-02-18T05:16:21.921Z,87.80
2023-02-18T05:18:48.695Z,89.20
2023-02-18T05:21:17.129Z,87.87
2023-02-18T05:23:46.158Z,86.69
2023-02-18T05:26:12.974Z,86.12
2023-02-18T05:28:39.742Z,87.94
2023-02-18T05:31:06.588Z,88.70
2023-02-18T05:33:33.472Z,87.35
2023-02-18T05:36:00.424Z,89.00
2023-02-18T05:38:28.626Z,87.11
2023-02-18T05:40:55.705Z,87.14
2023-02-18T05:43:22.564Z,86.01
2023-02-18T05:45:49.293Z,87.11
2023-02-18T05:48:16.186Z,88.28
2023-02-18T05:50:42.933Z,87.45
2023-02-18T05:53:09.789Z,87.35
2023-02-18T05:55:37.919Z,87.28
2023-02-18T05:58:04.777Z,86.79
2023-02-18T06:00:32.053Z,86.40
2023-02-18T06:02:59.323Z,86.62
2023-02-18T06:05:26.298Z,86.35
2023-02-18T06:07:55.201Z,86.52
2023-02-18T06:10:23.118Z,87.19
2023-02-18T06:12:51.236Z,86.80
2023-02-18T06:15:18.168Z,85.53
2023-02-18T06:17:44.914Z,85.97
2023-02-18T06:20:12.549Z,87.07
2023-02-18T06:22:39.403Z,86.27
2023-02-18T06:25:06.844Z,85.57
2023-02-18T06:27:33.660Z,86.62
2023-02-18T06:30:01.859Z,86.75
2023-02-18T06:32:28.778Z,87.30
2023-02-18T06:34:55.622Z,86.14
2023-02-18T06:37:22.375Z,86.08
2023-02-18T06:39:51.396Z,87.16
2023-02-18T06:42:18.284Z,86.70
2023-02-18T06:44:44.992Z,87.68
2023-02-18T06:47:13.098Z,88.79
2023-02-18T06:49:39.917Z,88.08
2023-02-18T06:52:06.645Z,88.00
2023-02-18T06:54:34.190Z,88.49
2023-02-18T06:57:01.011Z,88.29
2023-02-18T06:59:27.772Z,88.48
2023-02-18T07:01:54.701Z,87.95
2023-02-18T07:04:22.890Z,87.04
2023-02-18T07:06:49.655Z,86.37
2023-02-18T07:09:16.521Z,88.02
2023-02-18T07:11:43.279Z,88.22
2023-02-18T07:14:10.207Z,87.19
2023-02-18T07:16:36.975Z,87.26
2023-02-18T07:19:03.872Z,87.81
2023-02-18T07:21:31.962Z,87.50
2023-02-18T07:23:58.876Z,87.72
2023-02-18T07:26:25.714Z,87.27
2023-02-18T07:28:53.586Z,86.04
2023-02-18T07:31:20.472Z,86.51
2023-02-18T07:33:47.373Z,87.32
2023-02-18T07:36:14.300Z,87.22
2023-02-18T07:38:43.066Z,86.72
2023-02-18T07:41:17.169Z,87.53
2023-02-18T07:43:43.921Z,88.01
2023-02-18T07:46:11.677Z,87.37
2023-02-18T07:48:38.591Z,87.57
2023-02-18T07:51:06.735Z,87.93
2023-02-18T07:53:33.606Z,86.86
2023-02-18T07:56:01.879Z,87.65
2023-02-18T07:58:30.986Z,88.83
2023-02-18T08:00:58.188Z,87.18
2023-02-18T08:03:26.810Z,87.52
2023-02-18T08:05:54.721Z,87.33
2023-02-18T08:08:22.938Z,86.91
2023-02-18T08:10:50.986Z,86.30
2023-02-18T08:13:19.263Z,86.83
2023-02-18T08:15:46.346Z,87.18
2023-02-18T08:18:18.066Z,88.04
2023-02-18T08:20:44.820Z,86.45
2023-02-18T08:23:11.601Z,85.92
2023-02-18T08:25:38.384Z,87.07
2023-02-18T08:28:05.304Z,88.05
2023-02-18T08:30:33.631Z,87.68
2023-02-18T08:33:00.950Z,85.40
2023-02-18T08:35:27.890Z,87.53
2023-02-18T08:37:55.154Z,79.88
2023-02-18T08:40:22.843Z,83.04
2023-02-18T08:42:49.734Z,82.48
2023-02-18T08:45:17.676Z,78.62
2023-02-18T08:48:17.284Z,77.45
2023-02-18T08:50:33.109Z,73.51
2023-02-18T08:53:00.228Z,71.42
2023-02-18T08:55:27.170Z,72.46
2023-02-18T08:57:54.056Z,71.97
2023-02-18T09:00:21.194Z,68.93
2023-02-18T09:02:49.383Z,66.83
2023-02-18T09:05:16.705Z,66.23
2023-02-18T09:07:43.628Z,64.78
2023-02-18T09:10:11.913Z,64.32
2023-02-18T09:12:39.264Z,63.23
2023-02-18T09:15:06.796Z,60.88
2023-02-18T09:17:33.789Z,60.15
2023-02-18T09:20:02.322Z,58.37
2023-02-18T09:22:29.534Z,57.31
2023-02-18T09:24:56.532Z,56.50
2023-02-18T09:27:23.371Z,55.55
2023-02-18T09:29:50.268Z,55.19
2023-02-18T09:32:28.804Z,55.77
2023-02-18T09:35:02.370Z,56.26
2023-02-18T09:37:29.138Z,57.48
2023-02-18T09:39:55.893Z,57.78
2023-02-18T09:42:29.286Z,58.06
2023-02-18T09:44:59.694Z,59.06
2023-02-18T09:47:32.969Z,59.74
2023-02-18T09:50:05.478Z,59.53
2023-02-18T09:52:34.291Z,59.08
2023-02-18T09:55:01.999Z,59.39
2023-02-18T09:57:36.435Z,59.88
2023-02-18T10:00:10.975Z,59.36
2023-02-18T10:02:39.925Z,58.69
2023-02-18T10:05:15.240Z,59.02
2023-02-18T10:07:44.001Z,59.17
2023-02-18T10:10:21.265Z,58.36
2023-02-18T10:12:48.937Z,58.55
2023-02-18T10:15:22.364Z,58.41
2023-02-18T10:17:50.900Z,57.47
2023-02-18T10:20:24.773Z,56.57
2023-02-18T10:22:54.464Z,56.22
2023-02-18T10:25:24.303Z,56.05
2023-02-18T10:27:53.164Z,55.89
2023-02-18T10:30:27.668Z,55.99
2023-02-18T10:33:00.925Z,55.80
2023-02-18T10:35:34.727Z,55.93
2023-02-18T10:38:12.199Z,55.63
2023-02-18T10:40:51.350Z,55.48
2023-02-18T10:43:26.736Z,54.97
2023-02-18T10:46:01.744Z,54.98
2023-02-18T10:48:51.101Z,54.86
2023-02-18T10:51:22.072Z,54.60
2023-02-18T10:53:52.233Z,53.55
2023-02-18T10:56:39.518Z,54.35
2023-02-18T10:59:12.195Z,54.07
2023-02-18T11:01:41.030Z,53.32
2023-02-18T11:04:14.116Z,53.07
2023-02-18T11:06:45.947Z,53.64
2023-02-18T11:09:28.900Z,54.13
2023-02-18T11:12:08.384Z,54.63
2023-02-18T11:14:44.612Z,55.78
2023-02-18T11:17:22.507Z,56.12
2023-02-18T11:19:55.401Z,55.88
2023-02-18T11:22:25.965Z,56.86
2023-02-18T11:24:56.209Z,57.25
2023-02-18T11:27:27.707Z,57.61
2023-02-18T11:30:00.359Z,57.50
2023-02-18T11:32:28.300Z,58.07
2023-02-18T11:34:55.612Z,60.08
2023-02-18T11:37:24.838Z,60.29
2023-02-18T11:39:54.478Z,61.99
2023-02-18T11:42:24.796Z,62.40
2023-02-18T11:44:53.942Z,64.40
2023-02-18T11:47:23.988Z,65.15
2023-02-18T11:50:04.702Z,65.09
2023-02-18T11:52:37.484Z,64.27
2023-02-18T11:55:07.837Z,65.01
2023-02-18T11:57:38.460Z,66.25
2023-02-18T12:00:15.199Z,66.80
2023-02-18T12:02:42.143Z,66.12
2023-02-18T12:05:15.301Z,67.49
2023-02-18T12:07:47.088Z,68.74
2023-02-18T12:10:20.384Z,69.08
2023-02-18T12:12:51.604Z,66.55
2023-02-18T12:15:26.975Z,68.37
2023-02-18T12:18:13.841Z,70.04
2023-02-18T12:20:54.402Z,68.95
2023-02-18T12:23:30.103Z,68.86
2023-02-18T12:26:03.620Z,67.93
2023-02-18T12:28:44.891Z,67.32
2023-02-18T12:31:29.249Z,65.39
2023-02-18T12:34:07.283Z,65.56
2023-02-18T12:36:46.474Z,68.03
2023-02-18T12:39:28.868Z,68.52
2023-02-18T12:42:13.297Z,68.65
2023-02-18T12:44:45.528Z,67.64
2023-02-18T12:47:44.243Z,66.99
2023-02-18T12:50:57.997Z,67.34
2023-02-18T12:53:41.235Z,64.78
2023-02-18T12:56:35.092Z,66.09
2023-02-18T12:59:14.711Z,67.48
2023-02-18T13:01:52.778Z,66.13
2023-02-18T13:04:36.831Z,64.36
2023-02-18T13:07:38.097Z,66.50
2023-02-18T13:10:53.450Z,67.52
2023-02-18T13:13:25.590Z,69.12
2023-02-18T13:15:56.846Z,67.01
2023-02-18T13:18:29.037Z,67.46
2023-02-18T13:20:59.734Z,67.54
2023-02-18T13:23:30.270Z,67.50
2023-02-18T13:26:01.209Z,65.39
2023-02-18T13:28:37.453Z,66.25
2023-02-18T13:31:22.737Z,64.98
2023-02-18T13:33:57.581Z,63.50
2023-02-18T13:36:36.346Z,63.40
2023-02-18T13:39:07.080Z,62.54
2023-02-18T13:41:39.010Z,61.57
2023-02-18T13:44:56.160Z,62.58
2023-02-18T13:47:37.619Z,59.82
2023-02-18T13:50:16.993Z,58.93
2023-02-18T13:52:43.855Z,59.04
2023-02-18T13:55:20.561Z,59.08
2023-02-18T13:57:49.804Z,58.29
2023-02-18T14:00:24.243Z,59.35
2023-02-18T14:02:59.738Z,58.91
2023-02-18T14:05:39.480Z,58.65
2023-02-18T14:08:13.706Z,58.86
2023-02-18T14:10:40.468Z,59.36
2023-02-18T14:13:41.504Z,60.81
2023-02-18T14:16:11.232Z,62.01
2023-02-18T14:18:59.234Z,60.19
2023-02-18T14:21:40.320Z,60.36
2023-02-18T14:24:09.598Z,60.75
2023-02-18T14:26:40.335Z,60.99
2023-02-18T14:29:14.068Z,60.13
2023-02-18T14:31:52.431Z,60.35
2023-02-18T14:35:02.381Z,61.21
2023-02-18T14:38:02.518Z,61.19
2023-02-18T14:40:58.580Z,61.07
2023-02-18T14:43:46.941Z,61.34
2023-02-18T14:46:25.987Z,59.10
2023-02-18T14:49:08.685Z,59.10
2023-02-18T14:51:36.165Z,58.96
2023-02-18T14:54:05.438Z,58.57
2023-02-18T14:56:37.263Z,60.34
2023-02-18T14:59:05.471Z,57.68
2023-02-18T15:01:34.304Z,56.90
2023-02-18T15:04:03.936Z,58.58
2023-02-18T15:06:32.715Z,58.38
2023-02-18T15:08:59.851Z,58.89
2023-02-18T15:11:35.529Z,58.06
2023-02-18T15:14:10.338Z,58.43
2023-02-18T15:16:37.467Z,57.96
2023-02-18T15:19:13.164Z,56.29
2023-02-18T15:21:43.099Z,58.68
2023-02-18T15:24:19.726Z,59.04
2023-02-18T15:26:48.962Z,58.03
2023-02-18T15:29:19.381Z,58.71
2023-02-18T15:31:47.548Z,59.88
2023-02-18T15:34:30.249Z,59.91
2023-02-18T15:37:02.089Z,60.52
2023-02-18T15:39:30.776Z,61.81
2023-02-18T15:42:01.088Z,63.29
2023-02-18T15:44:31.065Z,64.70
2023-02-18T15:47:01.149Z,64.46
2023-02-18T15:49:29.950Z,64.86
2023-02-18T15:52:00.742Z,65.59
2023-02-18T15:54:28.207Z,65.20
2023-02-18T15:57:00.698Z,65.27
2023-02-18T15:59:30.120Z,65.69
2023-02-18T16:02:02.685Z,65.24
2023-02-18T16:04:34.289Z,66.02
2023-02-18T16:07:04.702Z,66.96
2023-02-18T16:09:33.933Z,67.05
2023-02-18T16:12:06.095Z,67.25
2023-02-18T16:14:35.112Z,67.42
2023-02-18T16:17:14.136Z,65.43
2023-02-18T16:20:03.244Z,66.97
2023-02-18T16:22:35.863Z,65.93
2023-02-18T16:25:14.499Z,65.64
2023-02-18T16:27:49.920Z,63.93
2023-02-18T16:30:23.481Z,64.21
2023-02-18T16:32:51.266Z,65.87
2023-02-18T16:35:20.108Z,65.93
2023-02-18T16:37:47.208Z,67.10
2023-02-18T16:40:28.080Z,68.15
2023-02-18T16:42:56.073Z,68.12
2023-02-18T16:45:33.312Z,67.92
2023-02-18T16:48:00.604Z,66.29
2023-02-18T16:50:31.447Z,65.35
2023-02-18T16:52:59.310Z,65.01
2023-02-18T16:55:28.424Z,63.44
2023-02-18T16:57:55.682Z,65.06
2023-02-18T17:00:23.728Z,64.65
2023-02-18T17:02:55.748Z,63.36
2023-02-18T17:05:27.649Z,65.45
2023-02-18T17:08:04.764Z,65.23
2023-02-18T17:10:35.144Z,65.50
2023-02-18T17:13:02.530Z,67.00
2023-02-18T17:15:31.991Z,67.58
2023-02-18T17:17:59.067Z,66.80
2023-02-18T17:20:26.820Z,67.33
2023-02-18T17:22:53.607Z,67.07
2023-02-18T17:25:28.185Z,68.09
2023-02-18T17:27:55.022Z,67.01
2023-02-18T17:30:22.174Z,67.35
2023-02-18T17:32:49.680Z,66.46
2023-02-18T17:35:18.673Z,66.78
2023-02-18T17:37:45.764Z,67.98
2023-02-18T17:40:17.013Z,64.85
2023-02-18T17:42:45.426Z,65.82
2023-02-18T17:45:20.452Z,67.15
2023-02-18T17:47:47.732Z,65.78
2023-02-18T17:50:14.729Z,66.29
2023-02-18T17:52:42.089Z,69.51
2023-02-18T17:55:22.370Z,71.37
2023-02-18T17:57:52.031Z,70.50
2023-02-18T18:00:22.356Z,67.68
2023-02-18T18:02:49.199Z,68.46
2023-02-18T18:05:21.942Z,67.79
2023-02-18T18:07:49.385Z,67.21
2023-02-18T18:10:17.248Z,66.37
2023-02-18T18:12:44.094Z,66.61
2023-02-18T18:15:28.654Z,65.21
2023-02-18T18:17:55.758Z,65.08
2023-02-18T18:20:23.168Z,66.68
2023-02-18T18:22:50.928Z,67.31
2023-02-18T18:25:20.913Z,64.79
2023-02-18T18:27:48.108Z,66.70
2023-02-18T18:30:15.292Z,65.80
2023-02-18T18:32:43.473Z,66.32
2023-02-18T18:35:19.223Z,65.64
2023-02-18T18:37:46.046Z,67.70
2023-02-18T18:40:12.908Z,69.29
2023-02-18T18:42:39.788Z,67.32
2023-02-18T18:45:16.444Z,67.68
2023-02-18T18:47:44.761Z,68.40
2023-02-18T18:50:12.387Z,70.44
2023-02-18T18:52:39.453Z,70.56
2023-02-18T18:55:18.389Z,70.17
2023-02-18T18:57:47.144Z,69.98
2023-02-18T19:00:15.203Z,69.36
2023-02-18T19:02:42.077Z,69.84
2023-02-18T19:05:17.890Z,71.61
2023-02-18T19:07:44.755Z,70.60
2023-02-18T19:10:11.594Z,69.34
2023-02-18T19:12:38.462Z,69.45
2023-02-18T19:15:05.863Z,68.25
2023-02-18T19:17:32.608Z,67.68
2023-02-18T19:19:59.389Z,69.50
2023-02-18T19:22:27.507Z,71.20
2023-02-18T19:24:56.276Z,70.55
2023-02-18T19:27:23.131Z,71.17
2023-02-18T19:29:49.997Z,69.76
2023-02-18T19:32:16.831Z,69.46
2023-02-18T19:34:43.568Z,69.63
2023-02-18T19:37:10.440Z,69.18
2023-02-18T19:39:38.578Z,70.76
2023-02-18T19:42:05.468Z,70.99
2023-02-18T19:44:33.283Z,72.18
2023-02-18T19:47:00.318Z,70.57
2023-02-18T19:49:28.077Z,71.91
2023-02-18T19:51:57.770Z,69.97
2023-02-18T19:54:24.638Z,70.18
2023-02-18T19:56:52.925Z,70.80
2023-02-18T19:59:19.797Z,71.20
2023-02-18T20:01:46.592Z,72.18
2023-02-18T20:04:13.473Z,72.95
2023-02-18T20:06:40.309Z,71.77
2023-02-18T20:09:07.168Z,71.35
2023-02-18T20:11:34.046Z,70.44
2023-02-18T20:14:02.428Z,69.70
2023-02-18T20:16:30.590Z,70.47
2023-02-18T20:18:57.355Z,72.69
2023-02-18T20:21:24.179Z,69.68
2023-02-18T20:23:53.389Z,70.46
2023-02-18T20:26:20.310Z,70.96
2023-02-18T20:28:47.473Z,75.73
2023-02-18T20:31:16.490Z,68.82
2023-02-18T20:33:43.721Z,69.01
2023-02-18T20:36:13.405Z,69.62
2023-02-18T20:38:40.401Z,69.80
2023-02-18T20:41:09.413Z,67.16
2023-02-18T20:43:36.693Z,67.80
2023-02-18T20:46:04.714Z,68.76
2023-02-18T20:48:33.753Z,68.17
2023-02-18T20:51:04.160Z,68.01
2023-02-18T20:53:31.362Z,67.85
2023-02-18T20:55:58.466Z,69.26
2023-02-18T20:58:25.648Z,69.41
2023-02-18T21:00:59.502Z,70.80
2023-02-18T21:03:27.129Z,69.92
2023-02-18T21:06:00.176Z,68.49
2023-02-18T21:08:27.692Z,69.23
2023-02-18T21:10:55.982Z,69.65
2023-02-18T21:13:24.362Z,68.29
2023-02-18T21:15:51.821Z,71.75
2023-02-18T21:18:19.080Z,69.59
2023-02-18T21:20:46.253Z,72.02
2023-02-18T21:23:14.468Z,71.03
2023-02-18T21:25:41.356Z,69.69
2023-02-18T21:28:08.469Z,70.43
2023-02-18T21:30:36.561Z,70.78
2023-02-18T21:33:04.581Z,69.97
2023-02-18T21:35:31.822Z,70.65
2023-02-18T21:37:58.584Z,70.30
2023-02-18T21:40:26.829Z,71.88
2023-02-18T21:42:53.603Z,71.46
2023-02-18T21:45:20.375Z,72.11
2023-02-18T21:47:47.424Z,72.29
2023-02-18T21:50:15.749Z,70.44
2023-02-18T21:52:43.397Z,71.37
2023-02-18T21:55:10.909Z,70.87
2023-02-18T21:57:39.157Z,72.00
2023-02-18T22:00:19.575Z,72.33
2023-02-18T22:02:47.010Z,70.96
2023-02-18T22:05:13.890Z,69.04
2023-02-18T22:07:40.620Z,70.32
2023-02-18T22:10:07.698Z,68.82
2023-02-18T22:12:34.458Z,68.56
2023-02-18T22:15:02.587Z,67.29
2023-02-18T22:17:29.360Z,68.57
2023-02-18T22:19:56.185Z,69.76
2023-02-18T22:22:23.072Z,69.93
2023-02-18T22:24:50.537Z,71.55
2023-02-18T22:27:17.419Z,69.96
2023-02-18T22:29:44.144Z,68.23
2023-02-18T22:32:12.346Z,69.96
2023-02-18T22:34:39.486Z,70.89
2023-02-18T22:37:06.515Z,68.54
2023-02-18T22:39:33.304Z,70.68
2023-02-18T22:42:00.164Z,69.43
2023-02-18T22:44:26.967Z,70.63
2023-02-18T22:46:55.425Z,69.43
2023-02-18T22:49:24.141Z,69.39
2023-02-18T22:51:52.716Z,67.77
2023-02-18T22:54:20.948Z,70.37
2023-02-18T22:56:48.459Z,69.75
2023-02-18T22:59:17.670Z,71.84
2023-02-18T23:01:46.575Z,70.88
2023-02-18T23:04:16.096Z,71.48
2023-02-18T23:06:46.390Z,73.63
2023-02-18T23:09:15.307Z,74.21
2023-02-18T23:11:42.301Z,76.90
2023-02-18T23:14:09.300Z,72.75
2023-02-18T23:16:36.608Z,73.83
2023-02-18T23:19:03.337Z,75.06
2023-02-18T23:21:30.087Z,74.21
2023-02-18T23:23:58.174Z,71.05
2023-02-18T23:26:25.871Z,70.70
2023-02-18T23:28:53.456Z,70.89
2023-02-18T23:31:22.088Z,71.96
2023-02-18T23:33:50.749Z,73.69
2023-02-18T23:36:20.593Z,77.26
2023-02-18T23:38:48.055Z,73.11
2023-02-18T23:41:16.535Z,71.16
2023-02-18T23:43:43.310Z,72.50
2023-02-18T23:46:10.175Z,73.68
2023-02-18T23:48:38.435Z,73.32
2023-02-18T23:51:07.733Z,73.71
2023-02-18T23:53:36.387Z,70.89
2023-02-18T23:56:06.482Z,70.32
2023-02-18T23:58:35.210Z,71.62
